D/T METAR WX W/DIR W/SPE G/SPE TEMP DEWP
15/01/19 20:50 EGNH 152050Z 23016KT 9999 BKN048 08/07 Q1009 SW (230°) 18.4mph 8°C 7°C
15/01/19 20:20 EGNH 152020Z 23015KT 9999 FEW012 BKN036 08/08 Q1010 SW (230°) 17.3mph 8°C 8°C
15/01/19 19:50 EGNH 151950Z 22013KT 9999 BKN012 08/08 Q1010 SW (220°) 15.0mph 8°C 8°C
15/01/19 19:20 EGNH 151920Z 23013KT 9999 FEW012 SCT032 08/07 Q1010 SW (230°) 15.0mph 8°C 7°C
15/01/19 18:50 EGNH 151850Z 23016KT 9999 FEW012 SCT028 08/08 Q1011 SW (230°) 18.4mph 8°C 8°C
15/01/19 18:20 EGNH 151820Z 23015KT 9999 SCT005 09/08 Q1011 SW (230°) 17.3mph 9°C 8°C
15/01/19 17:50 EGNH 151750Z 24012KT 9999 FEW018 BKN039 08/07 Q1012 WSW (240°) 13.8mph 8°C 7°C
15/01/19 17:20 EGNH 151720Z 23012KT 9999 FEW011 BKN038 08/07 Q1012 SW (230°) 13.8mph 8°C 7°C
15/01/19 16:20 EGNH 151620Z 23015KT 9999 BKN036 08/07 Q1012 SW (230°) 17.3mph 8°C 7°C
15/01/19 15:50 EGNH 151550Z 23013KT 9999 BKN039 08/07 Q1013 SW (230°) 15.0mph 8°C 7°C
15/01/19 15:20 EGNH 151520Z 23014KT 9999 BKN039 08/07 Q1013 SW (230°) 16.1mph 8°C 7°C
15/01/19 14:20 EGNH 151420Z 23012KT 9999 BKN040 08/07 Q1014 SW (230°) 13.8mph 8°C 7°C
15/01/19 13:50 EGNH 151350Z 23014KT 9999 BKN039 08/07 Q1014 SW (230°) 16.1mph 8°C 7°C
15/01/19 13:20 EGNH 151320Z 23012KT 9999 SCT042 09/07 Q1014 SW (230°) 13.8mph 9°C 7°C
15/01/19 12:50 EGNH 151250Z 23011KT 9999 SCT040 08/07 Q1015 SW (230°) 12.7mph 8°C 7°C
15/01/19 11:50 EGNH 151150Z 24013KT 9999 SCT041 09/07 Q1015 WSW (240°) 15.0mph 9°C 7°C
15/01/19 11:20 EGNH 151120Z 25014KT 9999 SCT039 09/07 Q1016 WSW (250°) 16.1mph 9°C 7°C
15/01/19 10:50 EGNH 151050Z 25015KT 9999 FEW043 09/07 Q1016 WSW (250°) 17.3mph 9°C 7°C
15/01/19 10:20 EGNH 151020Z 25014KT 9999 FEW046 09/07 Q1016 WSW (250°) 16.1mph 9°C 7°C
15/01/19 09:20 EGNH 150920Z 25009KT 9999 FEW009 08/07 Q1016 WSW (250°) 10.4mph 8°C 7°C
15/01/19 08:50 EGNH 150850Z 24016KT 9999 FEW013 08/07 Q1016 WSW (240°) 18.4mph 8°C 7°C
15/01/19 08:20 EGNH 150820Z 24016KT 9999 FEW015 08/07 Q1016 WSW (240°) 18.4mph 8°C 7°C
15/01/19 07:50 EGNH 150750Z 25016KT 9999 FEW015 08/07 Q1016 WSW (250°) 18.4mph 8°C 7°C
15/01/19 07:20 EGNH 150720Z 25017KT 9999 FEW049 08/07 Q1016 WSW (250°) 19.6mph 8°C 7°C
15/01/19 06:50 EGNH 150650Z 25022KT 9999 FEW049 08/07 Q1016 WSW (250°) 25.3mph 8°C 7°C
15/01/19 06:20 EGNH 150620Z 25018KT 9999 SCT049 08/07 Q1016 WSW (250°) 20.7mph 8°C 7°C
14/01/19 20:50 EGNH 142050Z 25013KT 9999 FEW011 SCT017 BKN029 09/06 Q1020 WSW (250°) 15.0mph 9°C 6°C
14/01/19 20:20 EGNH 142020Z 24012KT 9999 BKN034 08/06 Q1020 WSW (240°) 13.8mph 8°C 6°C
14/01/19 19:50 EGNH 141950Z 24012KT 9999 BKN038 08/05 Q1020 WSW (240°) 13.8mph 8°C 5°C
14/01/19 19:20 EGNH 141920Z 25011KT 9999 FEW037 BKN041 08/05 Q1021 WSW (250°) 12.7mph 8°C 5°C
14/01/19 18:50 EGNH 141850Z 25011KT 9999 SCT036 BKN048 08/05 Q1021 WSW (250°) 12.7mph 8°C 5°C
14/01/19 18:20 EGNH 141820Z 26011KT 9999 FEW040 08/06 Q1021 W (260°) 12.7mph 8°C 6°C
14/01/19 17:50 EGNH 141750Z 26011KT 9999 FEW018 SCT042 08/06 Q1021 W (260°) 12.7mph 8°C 6°C
14/01/19 17:20 EGNH 141720Z 27011KT 9999 SCT042 08/06 Q1021 W (270°) 12.7mph 8°C 6°C
14/01/19 16:50 EGNH 141650Z 27012KT 9999 SCT048 08/06 Q1021 W (270°) 13.8mph 8°C 6°C
14/01/19 16:20 EGNH 141620Z 27013KT 9999 FEW040 08/05 Q1021 W (270°) 15.0mph 8°C 5°C
14/01/19 15:50 EGNH 141550Z 27013KT 9999 SCT043 08/05 Q1021 W (270°) 15.0mph 8°C 5°C
14/01/19 15:20 EGNH 141520Z 28010KT 9999 SCT046 08/06 Q1021 W (280°) 11.5mph 8°C 6°C
14/01/19 14:50 EGNH 141450Z 27010KT 9999 SCT044 08/06 Q1021 W (270°) 11.5mph 8°C 6°C
14/01/19 14:20 EGNH 141420Z 28013KT 9999 FEW048 08/06 Q1021 W (280°) 15.0mph 8°C 6°C
14/01/19 13:50 EGNH 141350Z 29011KT 9999 FEW048 08/05 Q1021 WNW (290°) 12.7mph 8°C 5°C
14/01/19 13:20 EGNH 141320Z 29013KT 9999 FEW025 08/05 Q1021 WNW (290°) 15.0mph 8°C 5°C
14/01/19 12:50 EGNH 141250Z 29014KT 9999 VCSH FEW028 08/06 Q1021 VCSH WNW (290°) 16.1mph 8°C 6°C
14/01/19 12:20 EGNH 141220Z 29011KT 9999 VCSH FEW018 09/06 Q1021 VCSH WNW (290°) 12.7mph 9°C 6°C
14/01/19 11:50 EGNH 141150Z 29010KT 9999 VCSH SCT039 07/06 Q1021 VCSH WNW (290°) 11.5mph 7°C 6°C
14/01/19 11:20 EGNH 141120Z 29016KT 9999 VCSH SCT020 BKN028 08/06 Q1021 VCSH WNW (290°) 18.4mph 8°C 6°C
14/01/19 10:50 EGNH 141050Z 28011KT 9999 SCT044 08/06 Q1021 W (280°) 12.7mph 8°C 6°C
14/01/19 10:20 EGNH 141020Z 28011KT 9999 VCSH BKN032 08/06 Q1021 VCSH W (280°) 12.7mph 8°C 6°C
14/01/19 09:50 EGNH 140950Z 29012KT 9999 VCSH BKN021 07/06 Q1021 VCSH WNW (290°) 13.8mph 7°C 6°C
14/01/19 09:20 EGNH 140920Z 29012KT 9999 FEW015 SCT040 07/06 Q1020 WNW (290°) 13.8mph 7°C 6°C
14/01/19 08:50 EGNH 140850Z 28012KT 9999 FEW020 SCT041 07/05 Q1020 W (280°) 13.8mph 7°C 5°C
14/01/19 08:20 EGNH 140820Z 28015KT 9999 FEW020 SCT033 08/05 Q1019 W (280°) 17.3mph 8°C 5°C
14/01/19 07:50 EGNH 140750Z 29019KT 9999 FEW016 SCT031 08/05 Q1019 WNW (290°) 21.9mph 8°C 5°C
14/01/19 07:20 EGNH 140720Z 29023KT 9999 FEW020 SCT039 08/05 Q1018 WNW (290°) 26.5mph 8°C 5°C
14/01/19 06:50 EGNH 140650Z 28019KT 9999 SCT021 08/06 Q1018 W (280°) 21.9mph 8°C 6°C
14/01/19 06:20 EGNH 140620Z 28018KT 9999 FEW015 SCT021 08/06 Q1018 W (280°) 20.7mph 8°C 6°C
13/01/19 20:50 EGNH 132050Z 29025KT 9999 FEW023 SCT028 08/05 Q1013 WNW (290°) 28.8mph 8°C 5°C
13/01/19 20:20 EGNH 132020Z 29022G37KT 9999 SCT024 BKN028 09/05 Q1013 WNW (290°) 25.3mph 42.6mph 9°C 5°C
13/01/19 19:50 EGNH 131950Z 28018KT 9999 FEW020 SCT030 BKN038 09/05 Q1012 W (280°) 20.7mph 9°C 5°C
13/01/19 19:20 EGNH 131920Z 29019KT 9999 SCT027 SCT039 09/05 Q1013 WNW (290°) 21.9mph 9°C 5°C
13/01/19 18:50 EGNH 131850Z 28018KT 9999 FEW020 BKN030 09/05 Q1012 W (280°) 20.7mph 9°C 5°C
13/01/19 18:20 EGNH 131820Z 28020KT 9999 SCT032 BKN040 09/05 Q1011 W (280°) 23.0mph 9°C 5°C
13/01/19 17:50 EGNH 131750Z 28021KT 9999 FEW027 BKN039 08/05 Q1011 W (280°) 24.2mph 8°C 5°C
13/01/19 17:20 EGNH 131720Z 28021G31KT 9999 SCT028 SCT036 08/05 Q1011 W (280°) 24.2mph 35.7mph 8°C 5°C
13/01/19 16:50 EGNH 131650Z 29021G34KT 9999 FEW012 SCT025 BKN031 09/06 Q1011 WNW (290°) 24.2mph 39.1mph 9°C 6°C
13/01/19 16:20 EGNH 131620Z 27019KT 9999 SCT018 BKN043 09/06 Q1011 W (270°) 21.9mph 9°C 6°C
13/01/19 15:50 EGNH 131550Z 29022KT 9000 VCSH SCT018 09/05 Q1011 VCSH WNW (290°) 25.3mph 9°C 5°C
13/01/19 15:20 EGNH 131520Z 29022G32KT 9000 VCSH SCT010 BKN034 09/06 Q1010 VCSH WNW (290°) 25.3mph 36.8mph 9°C 6°C
13/01/19 14:50 EGNH 131450Z 28020KT 9000 VCSH SCT010 SCT018 09/07 Q1010 VCSH W (280°) 23.0mph 9°C 7°C
13/01/19 14:20 EGNH 131420Z 27023KT 9000 -SHRA FEW002 SCT020 09/07 Q1010 -SHRA W (270°) 26.5mph 9°C 7°C
13/01/19 13:50 EGNH 131350Z 26024KT 9999 -RA FEW008 BKN010 09/08 Q1010 -RA W (260°) 27.6mph 9°C 8°C
13/01/19 13:20 EGNH 131320Z 26027KT 9999 VCSH SCT039 10/09 Q1010 VCSH W (260°) 31.1mph 10°C 9°C
13/01/19 12:50 EGNH 131250Z 26026KT 9999 VCSH BKN020 10/09 Q1010 VCSH W (260°) 29.9mph 10°C 9°C
13/01/19 12:20 EGNH 131220Z 26029KT 9999 BKN022 10/09 Q1011 W (260°) 33.4mph 10°C 9°C
13/01/19 11:50 EGNH 131150Z 26027G37KT 9999 BKN039 10/09 Q1011 W (260°) 31.1mph 42.6mph 10°C 9°C
13/01/19 11:20 EGNH 131120Z 26026KT 9000 -RA FEW016 SCT019 BKN033 09/08 Q1011 -RA W (260°) 29.9mph 9°C 8°C
13/01/19 10:50 EGNH 131050Z 26028KT 9000 -RA SCT013 BKN021 09/08 Q1011 -RA W (260°) 32.2mph 9°C 8°C
13/01/19 10:20 EGNH 131020Z 26026KT 9000 BKN008 09/08 Q1011 W (260°) 29.9mph 9°C 8°C
13/01/19 09:50 EGNH 130950Z 26029KT 9999 BKN023 09/08 Q1011 W (260°) 33.4mph 9°C 8°C
13/01/19 09:20 EGNH 130920Z 26029G39KT 6000 -RA SCT008 BKN030 09/08 Q1011 -RA W (260°) 33.4mph 44.9mph 9°C 8°C
13/01/19 08:50 EGNH 130850Z 26027KT 9000 FEW010 SCT019 BKN027 09/08 Q1011 W (260°) 31.1mph 9°C 8°C
13/01/19 08:20 EGNH 130820Z 26030KT 9000 BKN026 09/08 Q1011 W (260°) 34.5mph 9°C 8°C
13/01/19 07:50 EGNH 130750Z 26028KT 9999 SCT018 BKN028 09/08 Q1011 W (260°) 32.2mph 9°C 8°C
13/01/19 07:20 EGNH 130720Z 26027KT 9999 OVC018 09/07 Q1012 W (260°) 31.1mph 9°C 7°C
13/01/19 06:50 EGNH 130650Z 26025G36KT 9999 OVC022 09/07 Q1012 W (260°) 28.8mph 41.4mph 9°C 7°C
13/01/19 06:20 EGNH 130620Z 26023KT 9999 BKN022 BKN034 09/08 Q1013 W (260°) 26.5mph 9°C 8°C
12/01/19 20:50 EGNH 122050Z 27023KT 8000 SCT035 10/08 Q1018 W (270°) 26.5mph 10°C 8°C
12/01/19 19:50 EGNH 121950Z 27025KT 8000 BKN025 10/08 Q1018 W (270°) 28.8mph 10°C 8°C
12/01/19 19:20 EGNH 121920Z 27022KT 8000 BKN025 10/08 Q1018 W (270°) 25.3mph 10°C 8°C
12/01/19 18:50 EGNH 121850Z 27020KT 8000 BKN027 10/08 Q1018 W (270°) 23.0mph 10°C 8°C
12/01/19 18:20 EGNH 121820Z 27023KT 8000 BKN023 10/08 Q1018 W (270°) 26.5mph 10°C 8°C
12/01/19 17:50 EGNH 121750Z 26024KT 8000 BKN022 10/08 Q1018 W (260°) 27.6mph 10°C 8°C
12/01/19 16:50 EGNH 121650Z 25021KT 9000 DZ OVC013 09/08 Q1018 DZ WSW (250°) 24.2mph 9°C 8°C
12/01/19 16:20 EGNH 121620Z 25023KT 9999 SCT010 BKN018 09/08 Q1018 WSW (250°) 26.5mph 9°C 8°C
12/01/19 15:50 EGNH 121550Z 25021KT 9999 BKN011 OVC026 09/08 Q1018 WSW (250°) 24.2mph 9°C 8°C
12/01/19 15:20 EGNH 121520Z 25022KT 9999 BKN008 OVC026 08/08 Q1019 WSW (250°) 25.3mph 8°C 8°C
12/01/19 14:50 EGNH 121450Z 26019KT 9999 BKN005 OVC022 08/07 Q1019 W (260°) 21.9mph 8°C 7°C
12/01/19 14:20 EGNH 121420Z 26021KT 9999 FEW009 OVC026 08/07 Q1019 W (260°) 24.2mph 8°C 7°C
12/01/19 13:50 EGNH 121350Z 26020KT 9999 FEW016 BKN032 09/07 Q1020 W (260°) 23.0mph 9°C 7°C
12/01/19 13:20 EGNH 121320Z 27019KT 9999 FEW018 BKN022 09/07 Q1020 W (270°) 21.9mph 9°C 7°C
12/01/19 12:50 EGNH 121250Z 27022KT 9999 BKN022 09/07 Q1020 W (270°) 25.3mph 9°C 7°C
12/01/19 12:20 EGNH 121220Z 27021KT 9999 FEW014 SCT028 09/07 Q1020 W (270°) 24.2mph 9°C 7°C
12/01/19 11:50 EGNH 121150Z 27022KT 9999 SCT035 09/07 Q1021 W (270°) 25.3mph 9°C 7°C
12/01/19 11:20 EGNH 121120Z 27022KT 9999 SCT029 09/07 Q1021 W (270°) 25.3mph 9°C 7°C
12/01/19 10:50 EGNH 121050Z 27021KT 9999 SCT028 09/06 Q1021 W (270°) 24.2mph 9°C 6°C
12/01/19 10:20 EGNH 121020Z 27020KT 9999 FEW013 SCT027 09/07 Q1021 W (270°) 23.0mph 9°C 7°C
12/01/19 09:50 EGNH 120950Z 27020KT 9999 SCT026 09/07 Q1021 W (270°) 23.0mph 9°C 7°C
12/01/19 09:20 EGNH 120920Z 27020KT 9999 SCT030 09/07 Q1021 W (270°) 23.0mph 9°C 7°C
12/01/19 08:50 EGNH 120850Z 27022KT 9999 SCT030 09/07 Q1021 W (270°) 25.3mph 9°C 7°C
12/01/19 07:50 EGNH 120750Z 27017KT 9999 SCT032 09/07 Q1021 W (270°) 19.6mph 9°C 7°C
12/01/19 07:20 EGNH 120720Z 27016KT 9999 SCT030 09/07 Q1021 W (270°) 18.4mph 9°C 7°C
12/01/19 06:50 EGNH 120650Z 27017KT 9999 SCT032 09/07 Q1021 W (270°) 19.6mph 9°C 7°C
12/01/19 06:20 EGNH 120620Z 27018KT 9999 FEW020 09/08 Q1021 W (270°) 20.7mph 9°C 8°C
11/01/19 20:50 EGNH 112050Z 26010KT 9999 BKN031 08/07 Q1028 W (260°) 11.5mph 8°C 7°C
11/01/19 20:20 EGNH 112020Z 26011KT 9999 FEW012 BKN030 08/08 Q1029 W (260°) 12.7mph 8°C 8°C
11/01/19 19:50 EGNH 111950Z 26010KT 9999 FEW009 BKN028 08/07 Q1029 W (260°) 11.5mph 8°C 7°C
11/01/19 19:20 EGNH 111920Z 27009KT 9999 FEW009 BKN031 08/07 Q1029 W (270°) 10.4mph 8°C 7°C
11/01/19 18:50 EGNH 111850Z 26010KT 9999 FEW025 BKN034 09/07 Q1029 W (260°) 11.5mph 9°C 7°C
11/01/19 18:20 EGNH 111820Z 26010KT 9999 BKN029 08/07 Q1029 W (260°) 11.5mph 8°C 7°C
11/01/19 17:50 EGNH 111750Z 26010KT 9999 BKN034 09/07 Q1029 W (260°) 11.5mph 9°C 7°C
11/01/19 17:20 EGNH 111720Z 26009KT 9999 BKN035 08/07 Q1029 W (260°) 10.4mph 8°C 7°C
11/01/19 16:50 EGNH 111650Z 26009KT 9999 BKN034 08/07 Q1030 W (260°) 10.4mph 8°C 7°C
11/01/19 16:20 EGNH 111620Z 25010KT 9999 BKN037 08/07 Q1030 WSW (250°) 11.5mph 8°C 7°C
11/01/19 15:50 EGNH 111550Z 26010KT 9999 BKN036 08/07 Q1030 W (260°) 11.5mph 8°C 7°C
11/01/19 15:20 EGNH 111520Z 27009KT 9999 BKN037 08/07 Q1030 W (270°) 10.4mph 8°C 7°C
11/01/19 14:50 EGNH 111450Z 27009KT 9999 BKN039 08/07 Q1030 W (270°) 10.4mph 8°C 7°C
11/01/19 14:20 EGNH 111420Z 27008KT 9999 BKN038 08/07 Q1030 W (270°) 9.2mph 8°C 7°C
11/01/19 13:50 EGNH 111350Z 28008KT 9999 BKN038 09/06 Q1030 W (280°) 9.2mph 9°C 6°C
11/01/19 13:20 EGNH 111320Z 29007KT 9999 BKN038 08/06 Q1031 WNW (290°) 8.1mph 8°C 6°C
11/01/19 12:20 EGNH 111220Z 30008KT 9999 BKN034 08/05 Q1031 WNW (300°) 9.2mph 8°C 5°C
11/01/19 11:50 EGNH 111150Z 31010KT 9999 BKN033 08/05 Q1031 NW (310°) 11.5mph 8°C 5°C
11/01/19 10:50 EGNH 111050Z 29006KT 9999 BKN030 08/06 Q1032 WNW (290°) 6.9mph 8°C 6°C
11/01/19 10:20 EGNH 111020Z 29006KT 9999 BKN029 08/06 Q1032 WNW (290°) 6.9mph 8°C 6°C
11/01/19 09:50 EGNH 110950Z 32006KT 9999 FEW014 BKN028 08/07 Q1032 NW (320°) 6.9mph 8°C 7°C
11/01/19 09:20 EGNH 110920Z 31005KT 9999 FEW016 BKN025 08/07 Q1032 NW (310°) 5.8mph 8°C 7°C
11/01/19 08:50 EGNH 110850Z 32004KT 280V340 CAVOK 08/07 Q1032 NW (320°) 4.6mph 8°C 7°C
11/01/19 08:20 EGNH 110820Z VRB03KT 9999 FEW015 BKN028 07/07 Q1031 N (0°) 3.5mph 7°C 7°C
11/01/19 07:20 EGNH 110720Z 32006KT 9999 SCT009 BKN021 07/06 Q1031 NW (320°) 6.9mph 7°C 6°C
11/01/19 06:50 EGNH 110650Z 31006KT 9999 FEW005 SCT012 BKN031 07/06 Q1031 NW (310°) 6.9mph 7°C 6°C
11/01/19 06:20 EGNH 110620Z 32007KT 9999 FEW002 SCT014 BKN029 07/06 Q1031 NW (320°) 8.1mph 7°C 6°C
10/01/19 20:50 EGNH 102050Z 32009KT 9999 FEW035 08/06 Q1031 NW (320°) 10.4mph 8°C 6°C
10/01/19 19:50 EGNH 101950Z 32007KT 9999 FEW022 BKN039 08/05 Q1031 NW (320°) 8.1mph 8°C 5°C
10/01/19 19:20 EGNH 101920Z 31008KT 9999 BKN043 08/06 Q1031 NW (310°) 9.2mph 8°C 6°C
10/01/19 18:50 EGNH 101850Z 32008KT 9999 BKN043 08/06 Q1031 NW (320°) 9.2mph 8°C 6°C